• Join FlightAware (Why Join?)
  • Login
  • US Flag 
12:31AM EDT


 

Airport Tracker/Info


-or-


 

Live Flight TrackerFlight Track Log ✈ AAY863 ✈ 03-Aug-2014 ✈ KCID - KPIE

Flight Track Log - Related Links

Times and Time Zones

All times are in EDT time to prevent confusion due to time zone crossing. See the AAY863 flight status page for this flight to view local times or setup timezone preferences in your user account.

Time Position Orientation Groundspeed Altitude Reporting Facility
EDT Latitude Longitude Course Direction KTS MPH feet Rate Location/Type
06:24PM 41.8569 -91.8519 137° Southeast 219 252 3,900  Level Chicago Center
06:25PM 41.7897 -91.8486 178° South 249 287 6,300 2,580 Climbing Chicago Center
06:27PM 41.7086 -91.7792 147° Southeast 288 331 9,300 2,460 Climbing Chicago Center
06:28PM 41.6394 -91.7197 147° Southeast 297 342 11,500 2,040 Climbing Chicago Center
06:29PM 41.5672 -91.6575 147° Southeast 304 350 13,600 1,500 Climbing Chicago Center
06:30PM 41.2812 -91.3347 137° Southeast  Level FlightAware Approximate
06:30PM 41.4892 -91.5836 145° Southeast 335 386 14,700  Level Chicago Center
06:31PM 41.3933 -91.4625 137° Southeast 393 452 16,100 1,500 Climbing Chicago Center
06:32PM 41.3050 -91.3567 138° Southeast 424 488 17,800 1,680 Climbing Chicago Center
06:33PM 41.2103 -91.2444 138° Southeast 441 507 19,600 1,620 Climbing Chicago Center
06:34PM 41.1156 -91.1328 138° Southeast 453 521 21,200 1,380 Climbing Chicago Center
06:35PM 41.0181 -91.0200 139° Southeast 464 534 22,500 1,260 Climbing Chicago Center
06:36PM 40.9183 -90.9036 139° Southeast 473 544 23,900 1,380 Climbing Chicago Center
06:37PM 40.8172 -90.7872 139° Southeast 483 556 25,400 1,500 Climbing Chicago Center
06:38PM 40.6958 -90.6461 139° Southeast 485 558 27,100 1,500 Climbing Chicago Center
06:39PM 40.5950 -90.5297 139° Southeast 485 558 28,600 1,200 Climbing Chicago Center
06:40PM 40.4961 -90.4158 139° Southeast 480 552 29,600 960 Climbing Chicago Center
06:41PM 40.3950 -90.3025 139° Southeast 480 552 30,700 660 Climbing Chicago Center
06:42PM 40.2747 -90.1636 139° Southeast 482 555 31,000 120 Climbing Chicago Center
06:43PM 40.1753 -90.0503 139° Southeast 482 555 31,000  Level Chicago Center
06:44PM 40.0739 -89.9372 140° Southeast 480 552 31,000  Level Chicago Center
06:45PM 40.0342 -89.8922 139° Southeast 482 555 31,000  Level Kansas City Center
06:46PM 39.9350 -89.7792 139° Southeast 479 551 31,000  Level Kansas City Center
06:47PM 39.8158 -89.6469 140° Southeast 475 547 31,000  Level Kansas City Center
06:48PM 39.7133 -89.5414 142° Southeast 473 544 31,000  Level Kansas City Center
06:49PM 39.6119 -89.4386 142° Southeast 472 543 31,000  Level Kansas City Center
06:50PM 39.5108 -89.3361 142° Southeast 466 536 31,000  Level Kansas City Center
06:51PM 39.4089 -89.2322 142° Southeast 466 536 31,000  Level Kansas City Center
06:52PM 39.2847 -89.1056 142° Southeast 466 536 31,000  Level Kansas City Center
06:53PM 39.1806 -88.9981 141° Southeast 470 541 31,000  Level Kansas City Center
06:54PM 39.0794 -88.8956 142° Southeast 467 537 31,000  Level Kansas City Center
06:55PM 38.9772 -88.7911 142° Southeast 463 533 31,000  Level Kansas City Center
06:56PM 38.8753 -88.6883 142° Southeast 466 536 31,000  Level Kansas City Center
06:57PM 38.7653 -88.5794 142° Southeast 466 536 31,000  Level Kansas City Center
06:58PM 38.6633 -88.4783 142° Southeast 466 536 31,000 240 Level Kansas City Center
06:59PM 38.5603 -88.3772 142° Southeast 466 536 31,500 780 Climbing Kansas City Center
07:00PM 38.4381 -88.2586 143° Southeast 465 535 32,600 720 Climbing Kansas City Center
07:01PM 38.3372 -88.1600 142° Southeast 463 533 33,000 180 Climbing Kansas City Center
07:02PM 38.2364 -88.0614 142° Southeast 462 532 33,000  Level Kansas City Center
07:03PM 38.1361 -87.9625 142° Southeast 460 529 33,000  Level Kansas City Center
07:04PM 38.0358 -87.8650 143° Southeast 459 528 33,000  Level Kansas City Center
07:05PM 37.9247 -87.7594 143° Southeast 456 525 33,000  Level Memphis Center
07:06PM 37.8106 -87.6872 153° Southeast 457 526 33,000  Level Memphis Center
07:07PM 37.6967 -87.6181 154° Southeast 450 518 33,000  Level Memphis Center
07:09PM 37.5444 -87.5242 154° Southeast 453 521 33,000  Level Indianapolis Center
07:10PM 37.4308 -87.4556 154° Southeast 453 521 33,000  Level Indianapolis Center
07:10PM 37.3353 -87.3972 154° Southeast 451 519 33,000  Level Memphis Center
07:11PM 37.2217 -87.3297 155° Southeast 451 519 33,000  Level Memphis Center
07:13PM 37.1064 -87.2597 154° Southeast 451 519 33,000  Level Memphis Center
07:14PM 36.9931 -87.1914 154° Southeast 451 519 33,000  Level Memphis Center
07:15PM 36.8794 -87.1236 154° Southeast 451 519 33,000  Level Memphis Center
07:16PM 36.7658 -87.0533 154° Southeast 451 519 33,000  Level Memphis Center
07:17PM 36.6522 -86.9861 155° Southeast 450 518 33,000  Level Memphis Center
07:18PM 36.5394 -86.9197 155° Southeast 449 517 33,000  Level Memphis Center
07:19PM 36.4261 -86.8519 154° Southeast 447 514 33,000  Level Memphis Center
07:20PM 36.2886 -86.7739 155° Southeast 448 516 33,000  Level Memphis Center
07:21PM 36.1883 -86.7142 154° Southeast 449 517 33,000  Level Memphis Center
07:22PM 36.0531 -86.6408 156° South 450 518 33,000  Level Memphis Center
07:23PM 35.9364 -86.5839 158° South 450 518 33,000  Level Memphis Center
07:24PM 35.8194 -86.5278 159° South 449 517 33,000  Level Memphis Center
07:25PM 35.7028 -86.4694 158° South 449 517 33,000  Level Memphis Center
07:26PM 35.5858 -86.4103 158° South 449 517 33,000  Level Memphis Center
07:27PM 35.4683 -86.3547 159° South 449 517 33,000  Level Memphis Center
07:28PM 35.3517 -86.2969 158° South 449 517 33,000  Level Memphis Center
07:29PM 35.2172 -86.2289 158° South 448 516 33,000  Level Memphis Center
07:30PM 35.1181 -86.1808 158° South 443 510 33,000  Level Memphis Center
07:31PM 34.9806 -86.1136 158° South 443 510 33,000  Level Memphis Center
07:32PM 34.8664 -86.0600 159° South 442 509 33,000  Level Memphis Center
07:33PM 34.7606 -86.0097 159° South 443 510 33,000  Level Memphis Center
07:34PM 34.6453 -85.9544 158° South 443 510 33,000  Level Memphis Center
07:35PM 34.5564 -85.9103 158° South 446 513 33,000  Level Atlanta Center
07:36PM 34.4425 -85.8547 158° South 446 513 33,000  Level Atlanta Center
07:37PM 34.3283 -85.8047 160° South 446 513 33,000  Level Atlanta Center
07:38PM 34.2144 -85.7494 158° South 446 513 33,000  Level Atlanta Center
07:39PM 34.0983 -85.6969 159° South 446 513 33,000  Level Atlanta Center
07:40PM 33.9842 -85.6447 159° South 446 513 33,000  Level Atlanta Center
07:41PM 33.8700 -85.5925 159° South 446 513 33,000  Level Atlanta Center
07:42PM 33.7539 -85.5378 159° South 446 513 33,000  Level Atlanta Center
07:43PM 33.6397 -85.4836 158° South 446 513 33,000  Level Atlanta Center
07:44PM 33.5275 -85.4317 159° South 446 513 33,000  Level Atlanta Center
07:45PM 33.4008 -85.3725 159° South 446 513 33,000  Level Atlanta Center
07:46PM 33.2825 -85.3186 159° South 446 513 33,000  Level Atlanta Center
07:47PM 33.1683 -85.2647 158° South 446 513 33,000  Level Atlanta Center
07:48PM 33.0789 -85.2214 158° South 446 513 33,000  Level Atlanta Center
07:49PM 32.9542 -85.1678 160° South 446 513 33,000  Level Atlanta Center
07:50PM 32.8272 -85.1339 167° South 439 505 33,000  Level Atlanta Center
07:51PM 32.7211 -85.0906 161° South 439 505 33,000  Level Atlanta Center
07:52PM 32.6108 -85.0547 165° South 431 496 33,000  Level Atlanta Center
07:53PM 32.4900 -85.0117 163° South 431 496 33,000  Level Atlanta Center
07:54PM 32.3692 -84.9708 164° South 440 506 33,000  Level Atlanta Center
07:55PM 32.2422 -84.9353 167° South 440 506 33,000  Level Atlanta Center
07:57PM 32.0697 -84.8686 162° South 445 512 33,000  Level Jacksonville Center
07:58PM 31.9492 -84.8317 165° South 439 505 33,000  Level Jacksonville Center
07:59PM 31.8203 -84.7900 165° South 439 505 33,000  Level Jacksonville Center
08:00PM 31.7019 -84.7508 164° South 439 505 33,000  Level Jacksonville Center
08:01PM 31.5856 -84.7119 164° South 434 499 33,000  Level Jacksonville Center
08:02PM 31.4650 -84.6731 165° South 434 499 33,000  Level Jacksonville Center
08:03PM 31.3508 -84.6344 164° South 434 499 33,000  Level Jacksonville Center
08:04PM 31.2344 -84.5983 165° South 434 499 33,000  Level Jacksonville Center
08:05PM 31.1181 -84.5572 163° South 434 499 33,000  Level Jacksonville Center
08:06PM 31.0036 -84.5214 165° South 429 494 33,000  Level Jacksonville Center
08:07PM 30.8872 -84.4806 163° South 429 494 33,000  Level Jacksonville Center
08:08PM 30.7747 -84.4472 166° South 435 501 33,000  Level Jacksonville Center
08:09PM 30.6564 -84.4092 165° South 430 495 33,000  Level Jacksonville Center
08:10PM 30.5522 -84.3689 162° South 430 495 33,000 -60 Level Jacksonville Center
08:11PM 30.4444 -84.3022 152° Southeast 430 495 32,900  Descending Jacksonville Center
08:12PM 30.3408 -84.2333 150° Southeast 430 495 33,000  Climbing Jacksonville Center
08:13PM 30.2331 -84.1692 153° Southeast 430 495 33,000  Level Jacksonville Center
08:14PM 30.1228 -84.1100 155° Southeast 430 495 33,000  Level Jacksonville Center
08:15PM 30.0108 -84.0489 155° Southeast 436 502 33,000  Level Jacksonville Center
08:16PM 29.9006 -83.9828 153° Southeast 441 507 33,000  Level Jacksonville Center
08:18PM 29.6783 -83.8344 150° Southeast 441 507 33,000 -420 Level Jacksonville Center
08:19PM 29.5747 -83.7594 148° Southeast 441 507 31,900 -1,140 Descending Jacksonville Center
08:20PM 29.4686 -83.6917 151° Southeast 441 507 30,800 -1,200 Descending Jacksonville Center
08:21PM 29.3583 -83.6192 150° Southeast 441 507 29,600 -1,200 Descending Jacksonville Center
08:22PM 29.2503 -83.5472 150° Southeast 447 514 28,500 -1,200 Descending Jacksonville Center
08:23PM 29.1419 -83.4750 150° Southeast 447 514 27,300 -1,200 Descending Jacksonville Center
08:24PM 29.0275 -83.4008 150° Southeast 455 524 26,100 -1,740 Descending Jacksonville Center
08:25PM 28.9150 -83.3242 149° Southeast 461 531 23,900 -2,400 Descending Jacksonville Center
08:26PM 28.8089 -83.2550 150° Southeast 461 531 21,300 -2,640 Descending Jacksonville Center
08:27PM 28.7025 -83.1861 150° Southeast 450 518 18,700 -2,520 Descending Jacksonville Center
08:28PM 28.5636 -83.0939 150° Southeast 416 479 15,000 -2,460 Descending Miami Center
08:29PM 28.4675 -83.0328 151° Southeast 403 464 12,400 -2,460 Descending Miami Center
08:30PM 28.3750 -82.9714 150° Southeast 387 445 10,000 -1,200 Descending Miami Center
08:31PM 28.2667 -82.9000 150° Southeast 374 430 10,000 -120 Level Tampa TRACON
08:32PM 28.1833 -82.8500 152° Southeast 327 376 9,800 -1,140 Descending Tampa TRACON
08:33PM 28.1000 -82.8167 161° South 283 326 7,900 -2,340 Descending Tampa TRACON
08:34PM 28.0333 -82.8000 168° South 284 327 5,600 -2,580 Descending Tampa TRACON
08:35PM 27.9667 -82.7667 156° South 278 320 3,000 -1,680 Descending Tampa TRACON
08:36PM 27.9000 -82.7500 168° South 229 264 2,100 -720 Descending Tampa TRACON
08:37PM 27.8500 -82.7167 149° Southeast 182 209 1,500 -660 Descending Tampa TRACON
08:38PM 27.8667 -82.6833 61° Northeast 139 160 800 -660 Descending Tampa TRACON